Time;durP1;ratioP1;P1;durP2;ratioP2;P2;SDS_P1;SDS_P2;PMS_P1;PMS_P2;Temp;Humidity;BMP_temperature;BMP_pressure;BME280_temperature;BME280_humidity;BME280_pressure;Samples;Min_cycle;Max_cycle;Signal;HPM_P1;HPM_P2
2024/01/15 00:02:16;;;;;;;4.72;3.00;;;;;;;10.22;100.00;101385.63;10531957;28;20055;-79
2024/01/15 00:07:38;;;;;;;7.85;4.15;;;;;;;10.08;100.00;101380.78;10504176;28;20109;-80
2024/01/15 00:13:01;;;;;;;7.82;3.55;;;;;;;9.75;100.00;101391.28;10533509;28;20052;-80
2024/01/15 00:18:25;;;;;;;8.60;4.53;;;;;;;9.79;100.00;101387.88;10518804;28;20094;-79
2024/01/15 00:23:47;;;;;;;5.10;3.70;;;;;;;9.78;100.00;101378.19;10534791;28;20089;-81
2024/01/15 00:29:10;;;;;;;5.25;3.67;;;;;;;9.24;100.00;101343.22;10532801;28;20067;-79
2024/01/15 00:34:34;;;;;;;3.42;2.35;;;;;;;9.63;100.00;101351.38;10517930;28;20048;-80
2024/01/15 00:39:56;;;;;;;5.78;2.50;;;;;;;9.85;100.00;101351.13;10532586;28;20060;-79
2024/01/15 00:45:19;;;;;;;3.83;2.92;;;;;;;9.72;100.00;101357.78;10517507;28;20059;-80
2024/01/15 00:50:42;;;;;;;6.40;2.50;;;;;;;9.82;100.00;101358.97;10532900;28;20040;-79
2024/01/15 00:56:05;;;;;;;4.05;3.60;;;;;;;9.83;100.00;101350.22;10553943;28;20097;-79
2024/01/15 01:01:28;;;;;;;6.18;2.78;;;;;;;9.71;100.00;101361.31;10535565;28;20043;-78
2024/01/15 01:06:52;;;;;;;3.10;1.95;;;;;;;9.87;100.00;101365.25;10516032;28;20563;-79
2024/01/15 01:12:14;;;;;;;8.15;2.60;;;;;;;10.05;100.00;101355.22;10531271;28;20496;-79
2024/01/15 01:17:37;;;;;;;5.53;2.28;;;;;;;9.97;100.00;101362.94;10517737;28;20059;-80
2024/01/15 01:23:01;;;;;;;3.80;2.53;;;;;;;10.16;100.00;101351.13;10545817;28;20152;-80
2024/01/15 01:28:24;;;;;;;8.55;3.97;;;;;;;10.46;100.00;101351.06;10531353;28;20044;-79
2024/01/15 01:33:46;;;;;;;3.15;2.40;;;;;;;10.53;100.00;101344.19;10516200;28;20504;-81
2024/01/15 01:39:11;;;;;;;3.03;2.45;;;;;;;10.35;100.00;101349.91;10531560;28;20106;-81
2024/01/15 01:44:34;;;;;;;4.05;1.90;;;;;;;10.23;100.00;101332.00;10531205;28;20048;-79
2024/01/15 01:49:57;;;;;;;3.03;2.10;;;;;;;10.32;100.00;101318.13;10503524;28;20048;-80
2024/01/15 01:55:23;;;;;;;4.00;2.45;;;;;;;10.24;100.00;101320.56;10509441;28;20047;-81
2024/01/15 02:00:45;;;;;;;6.32;3.95;;;;;;;10.09;100.00;101312.25;10536191;28;20147;-80
2024/01/15 02:06:08;;;;;;;5.22;1.90;;;;;;;10.03;100.00;101327.91;10538351;28;20430;-79
2024/01/15 02:11:32;;;;;;;3.00;2.00;;;;;;;10.30;100.00;101331.31;10538335;28;20074;-80
2024/01/15 02:16:54;;;;;;;5.03;3.10;;;;;;;10.65;100.00;101333.94;10538288;28;20048;-80
2024/01/15 02:22:17;;;;;;;3.88;2.10;;;;;;;10.90;100.00;101328.38;10523614;28;20062;-79
2024/01/15 02:27:42;;;;;;;5.78;5.05;;;;;;;11.32;100.00;101332.84;10535513;28;20047;-80
2024/01/15 02:33:04;;;;;;;3.40;2.38;;;;;;;11.45;100.00;101322.56;10522231;28;20035;-79
2024/01/15 02:38:27;;;;;;;4.93;2.55;;;;;;;11.64;100.00;101323.81;10523181;28;20093;-80
2024/01/15 02:43:52;;;;;;;5.25;2.83;;;;;;;11.71;100.00;101327.47;10509168;28;20500;-80
2024/01/15 02:49:14;;;;;;;3.17;2.20;;;;;;;11.55;100.00;101324.53;10537145;28;20042;-81
2024/01/15 02:54:37;;;;;;;3.05;1.92;;;;;;;11.51;100.00;101319.16;10522078;28;20055;-81
2024/01/15 03:00:01;;;;;;;5.20;2.10;;;;;;;11.34;100.00;101315.28;10519705;28;20064;-80
2024/01/15 03:05:23;;;;;;;4.70;3.38;;;;;;;11.27;100.00;101322.19;10535417;28;20448;-79
2024/01/15 03:10:46;;;;;;;2.70;2.30;;;;;;;11.63;100.00;101326.44;10535071;28;20051;-80
2024/01/15 03:16:10;;;;;;;2.88;1.60;;;;;;;11.96;100.00;101333.31;10535832;28;20044;-80
2024/01/15 03:21:32;;;;;;;2.42;1.50;;;;;;;11.95;100.00;101330.63;10523008;28;20109;-79
2024/01/15 03:26:54;;;;;;;4.55;1.60;;;;;;;11.90;100.00;101329.66;10534679;28;20039;-79
2024/01/15 03:32:19;;;;;;;4.28;1.83;;;;;;;11.90;100.00;101343.78;10534594;28;20048;-79
2024/01/15 03:37:42;;;;;;;2.33;1.50;;;;;;;11.91;100.00;101335.00;10521075;28;20399;-79
2024/01/15 03:43:04;;;;;;;6.80;1.38;;;;;;;12.00;100.00;101343.97;10520245;28;20079;-79
2024/01/15 03:48:28;;;;;;;3.35;1.73;;;;;;;12.00;100.00;101336.94;10549548;28;20055;-79
2024/01/15 03:53:51;;;;;;;2.85;1.90;;;;;;;12.05;100.00;101342.28;10518333;28;20048;-79
2024/01/15 03:59:13;;;;;;;2.95;1.88;;;;;;;11.88;100.00;101342.00;10558897;28;20513;-79
2024/01/15 04:04:37;;;;;;;3.63;1.45;;;;;;;11.77;100.00;101339.13;10530246;28;20140;-79
2024/01/15 04:10:00;;;;;;;2.60;2.08;;;;;;;11.73;100.00;101339.00;10533891;28;20458;-79
2024/01/15 04:15:23;;;;;;;5.88;1.60;;;;;;;11.63;100.00;101345.84;10532959;28;20046;-79
2024/01/15 04:20:46;;;;;;;5.55;1.88;;;;;;;11.33;100.00;101340.81;10521889;28;20042;-79
2024/01/15 04:26:10;;;;;;;6.43;4.82;;;;;;;11.06;100.00;101348.13;10532601;28;20048;-79
2024/01/15 04:31:33;;;;;;;13.95;7.20;;;;;;;10.75;100.00;101368.53;10532921;28;20052;-79
2024/01/15 04:36:56;;;;;;;3.92;1.70;;;;;;;10.31;100.00;101356.81;10532933;28;20055;-79
2024/01/15 04:42:19;;;;;;;13.48;5.30;;;;;;;10.26;100.00;101366.38;10532165;28;20530;-79
2024/01/15 04:47:42;;;;;;;7.47;3.67;;;;;;;10.34;100.00;101369.22;10518551;28;20112;-79
2024/01/15 04:53:06;;;;;;;2.33;2.08;;;;;;;10.29;100.00;101355.03;10533389;28;20074;-79
2024/01/15 04:58:29;;;;;;;10.02;6.53;;;;;;;10.21;100.00;101375.91;10532622;28;20101;-79
2024/01/15 05:03:51;;;;;;;6.00;2.72;;;;;;;9.93;100.00;101368.06;10543977;28;20044;-79
2024/01/15 05:09:15;;;;;;;4.35;2.40;;;;;;;9.89;100.00;101371.47;10503872;28;20044;-79
2024/01/15 05:14:37;;;;;;;2.85;2.28;;;;;;;9.90;100.00;101371.53;10529266;28;20109;-79
2024/01/15 05:20:00;;;;;;;10.82;5.85;;;;;;;9.82;100.00;101366.88;10519873;28;20044;-78
2024/01/15 05:25:24;;;;;;;13.60;9.90;;;;;;;9.69;100.00;101360.38;10516264;28;20480;-79
2024/01/15 05:30:47;;;;;;;19.45;12.98;;;;;;;9.71;100.00;101348.13;10516225;28;20044;-79
2024/01/15 05:36:09;;;;;;;6.68;4.95;;;;;;;9.72;100.00;101346.34;10516617;28;20077;-79
2024/01/15 05:41:34;;;;;;;4.70;4.20;;;;;;;9.64;100.00;101343.53;10538657;28;20059;-79
2024/01/15 05:46:56;;;;;;;7.03;4.60;;;;;;;9.51;100.00;101342.28;10516370;28;20056;-78
2024/01/15 05:52:18;;;;;;;3.85;2.90;;;;;;;9.71;100.00;101328.78;10518067;28;20044;-78
2024/01/15 05:57:42;;;;;;;3.75;1.70;;;;;;;9.90;100.00;101323.16;10537804;28;20065;-79
2024/01/15 06:03:05;;;;;;;26.27;9.68;;;;;;;10.38;100.00;101313.00;10523775;28;20055;-79
2024/01/15 06:08:27;;;;;;;11.95;7.05;;;;;;;10.63;100.00;101327.75;10524131;28;20074;-78
2024/01/15 06:13:51;;;;;;;16.17;13.30;;;;;;;10.65;100.00;101320.72;10510064;28;20048;-79
2024/01/15 06:19:14;;;;;;;5.18;3.95;;;;;;;11.04;100.00;101324.28;10521672;28;20135;-78
2024/01/15 06:24:36;;;;;;;6.82;5.65;;;;;;;14.31;87.82;101316.34;10536904;28;20044;-79
2024/01/15 06:30:00;;;;;;;7.25;3.47;;;;;;;16.47;63.37;101318.38;10536708;28;20055;-79
2024/01/15 06:35:22;;;;;;;5.30;3.17;;;;;;;18.03;52.71;101314.44;10533611;28;20557;-79
2024/01/15 06:40:45;;;;;;;8.07;4.40;;;;;;;18.48;48.59;101320.38;10536139;28;20051;-79
2024/01/15 06:46:09;;;;;;;9.68;5.80;;;;;;;19.75;45.56;101324.44;10522744;28;20055;-79
2024/01/15 06:51:32;;;;;;;6.60;4.35;;;;;;;19.33;45.89;101322.25;10522097;28;20040;-79
2024/01/15 06:56:54;;;;;;;6.18;3.92;;;;;;;18.30;46.33;101322.28;10521049;28;20054;-78
2024/01/15 07:02:18;;;;;;;9.20;4.13;;;;;;;16.82;51.41;101331.72;10535299;28;20052;-79
2024/01/15 07:07:41;;;;;;;13.30;10.60;;;;;;;16.36;55.38;101341.47;10534063;28;20056;-80
2024/01/15 07:13:04;;;;;;;42.47;24.15;;;;;;;16.21;58.23;101354.78;10521022;28;20048;-79
2024/01/15 07:18:28;;;;;;;24.65;15.23;;;;;;;16.06;61.00;101354.72;10532617;28;20044;-79
2024/01/15 07:23:50;;;;;;;12.18;8.75;;;;;;;16.43;61.77;101358.34;10538962;28;20070;-80
2024/01/15 07:29:13;;;;;;;9.27;6.85;;;;;;;18.17;56.19;101360.69;10534439;28;20054;-79
2024/01/15 07:34:37;;;;;;;4.80;3.67;;;;;;;18.12;57.60;101362.47;10533928;28;20044;-79
2024/01/15 07:40:00;;;;;;;5.38;3.03;;;;;;;17.69;64.80;101366.25;10532555;28;20047;-78
2024/01/15 07:45:22;;;;;;;3.90;3.50;;;;;;;17.44;70.86;101368.09;10514692;28;20056;-79
2024/01/15 07:50:46;;;;;;;8.75;4.50;;;;;;;17.52;75.45;101369.81;10517729;28;20492;-79
2024/01/15 07:56:10;;;;;;;9.25;5.13;;;;;;;18.33;72.58;101366.81;10517749;28;20075;-80
2024/01/15 08:01:33;;;;;;;10.40;4.93;;;;;;;18.66;73.70;101373.72;10533846;28;20055;-80
2024/01/15 08:06:58;;;;;;;6.45;3.10;;;;;;;19.05;74.32;101368.03;10526920;28;20089;-78
2024/01/15 08:12:20;;;;;;;10.13;3.72;;;;;;;18.99;80.55;101365.41;10527629;28;20074;-79
2024/01/15 08:17:43;;;;;;;8.02;3.20;;;;;;;18.56;91.87;101375.59;10512530;28;20491;-78
2024/01/15 08:23:07;;;;;;;11.20;3.60;;;;;;;18.13;100.00;101385.63;10521591;28;20059;-79
2024/01/15 08:28:30;;;;;;;5.53;3.47;;;;;;;18.24;100.00;101382.91;10528835;28;20048;-78
2024/01/15 08:33:53;;;;;;;7.40;3.03;;;;;;;19.38;93.74;101374.84;10529117;28;20056;-78
2024/01/15 08:39:18;;;;;;;7.38;3.10;;;;;;;19.51;88.11;101372.94;10531560;28;20040;-79
2024/01/15 08:44:43;;;;;;;7.45;2.50;;;;;;;19.31;87.87;101380.28;10544256;28;20056;-78
2024/01/15 08:50:07;;;;;;;9.82;4.68;;;;;;;19.94;86.07;101359.03;10518020;28;20484;-79
2024/01/15 08:55:31;;;;;;;7.80;3.58;;;;;;;19.83;88.05;101357.38;10517142;28;20071;-79
2024/01/15 09:00:53;;;;;;;10.07;2.75;;;;;;;19.74;90.21;101343.22;10516982;28;20110;-79
2024/01/15 09:06:16;;;;;;;7.95;3.22;;;;;;;22.01;71.22;101341.09;10534136;28;20043;-79
2024/01/15 09:11:39;;;;;;;8.77;2.78;;;;;;;23.92;54.45;101327.13;10533855;28;20055;-80
2024/01/15 09:17:03;;;;;;;5.28;2.17;;;;;;;25.19;47.14;101327.47;10539815;28;20050;-79
2024/01/15 09:22:25;;;;;;;4.32;1.80;;;;;;;26.49;41.68;101323.38;10538072;28;20109;-80
2024/01/15 09:27:49;;;;;;;4.85;2.20;;;;;;;26.78;38.42;101314.88;10523927;28;20052;-81
2024/01/15 09:33:14;;;;;;;5.53;2.30;;;;;;;27.51;36.63;101318.91;10525274;28;20048;-80
2024/01/15 09:38:36;;;;;;;7.30;2.38;;;;;;;27.07;37.03;101310.06;10538898;28;20533;-80
2024/01/15 09:44:00;;;;;;;4.07;1.70;;;;;;;27.14;35.76;101292.59;10492426;28;20055;-79
2024/01/15 09:49:23;;;;;;;7.00;1.75;;;;;;;24.63;38.72;101284.34;10514325;28;20068;-80
2024/01/15 09:54:47;;;;;;;7.63;4.32;;;;;;;22.85;41.24;101267.28;10538730;28;20066;-80
2024/01/15 10:00:12;;;;;;;11.48;7.10;;;;;;;21.67;43.81;101279.09;10505107;28;20036;-79
2024/01/15 10:05:35;;;;;;;12.23;6.38;;;;;;;21.54;43.71;101274.00;10537231;28;20139;-80
2024/01/15 10:10:57;;;;;;;8.18;4.88;;;;;;;20.77;45.27;101281.75;10537966;28;20040;-80
2024/01/15 10:16:21;;;;;;;5.75;4.15;;;;;;;19.89;46.52;101262.59;10514509;28;20055;-79
2024/01/15 10:21:44;;;;;;;5.22;4.68;;;;;;;19.38;48.06;101251.66;10536204;28;20468;-79
2024/01/15 10:27:07;;;;;;;5.68;2.22;;;;;;;20.27;54.09;101225.38;10519007;28;20484;-79
2024/01/15 10:32:31;;;;;;;6.03;2.10;;;;;;;24.62;41.02;101215.06;10521733;28;20051;-79
2024/01/15 10:37:54;;;;;;;3.38;1.63;;;;;;;22.82;43.92;101204.56;10536252;28;20067;-79
2024/01/15 10:43:17;;;;;;;6.03;2.08;;;;;;;24.35;40.40;101205.22;10521675;28;20048;-79
2024/01/15 10:48:41;;;;;;;6.20;1.60;;;;;;;24.51;39.59;101213.69;10536567;28;20507;-79
2024/01/15 10:54:05;;;;;;;3.13;2.00;;;;;;;24.86;38.77;101207.03;10518963;28;20055;-80
2024/01/15 10:59:28;;;;;;;4.30;2.60;;;;;;;25.15;36.91;101196.06;10535303;28;20044;-79
2024/01/15 11:04:52;;;;;;;4.53;2.53;;;;;;;25.87;35.60;101196.84;10534771;28;20098;-79
2024/01/15 11:10:48;;;;;;;3.58;1.42;;;;;;;24.62;37.97;101190.75;10533534;28;20101;-79
2024/01/15 11:16:13;;;;;;;3.67;1.52;;;;;;;23.74;39.68;101199.13;10495305;28;20135;-79
2024/01/15 11:21:44;;;;;;;3.17;1.05;;;;;;;21.52;44.14;101182.69;10532832;28;20087;-78
2024/01/15 11:27:06;;;;;;;4.38;1.55;;;;;;;20.93;47.78;101178.59;10526864;28;20555;-78
2024/01/15 11:32:35;;;;;;;6.80;2.75;;;;;;;22.30;46.90;101176.34;10524756;28;20064;-79
2024/01/15 11:37:59;;;;;;;3.50;2.35;;;;;;;22.98;44.98;101170.88;10518268;28;20538;-78
2024/01/15 11:43:23;;;;;;;4.65;2.10;;;;;;;23.55;42.55;101165.59;10513283;28;20052;-79
2024/01/15 11:48:46;;;;;;;5.28;1.52;;;;;;;23.39;41.33;101166.97;10530551;28;20039;-78
2024/01/15 11:54:13;;;;;;;5.03;1.15;;;;;;;22.74;43.24;101153.63;10518951;28;20067;-78
2024/01/15 11:59:36;;;;;;;4.90;1.93;;;;;;;22.42;43.84;101140.16;10530362;28;20133;-76
2024/01/15 12:04:58;;;;;;;2.42;1.45;;;;;;;21.97;45.05;101143.13;10528694;28;20043;-75
2024/01/15 12:10:22;;;;;;;2.67;1.48;;;;;;;21.30;46.79;101133.94;10527901;28;20054;-78
2024/01/15 12:15:46;;;;;;;2.92;1.38;;;;;;;20.81;47.64;101134.06;10546732;28;20066;-77
2024/01/15 12:21:09;;;;;;;5.18;1.48;;;;;;;20.41;49.57;101127.75;10517714;28;20069;-78
2024/01/15 12:26:33;;;;;;;4.40;1.33;;;;;;;20.29;52.81;101132.38;10477681;28;20063;-78
2024/01/15 12:31:55;;;;;;;4.55;1.67;;;;;;;20.43;55.82;101137.50;10507723;28;20052;-78
2024/01/15 12:37:19;;;;;;;4.03;1.60;;;;;;;20.38;57.83;101144.75;10490091;28;20067;-77
2024/01/15 12:42:43;;;;;;;5.07;2.47;;;;;;;19.93;58.91;101153.56;10511790;28;20036;-78
2024/01/15 12:48:06;;;;;;;4.15;1.40;;;;;;;19.59;60.84;101139.81;10530978;28;20048;-80
2024/01/15 12:53:29;;;;;;;5.40;1.05;;;;;;;19.26;65.28;101144.72;10530691;28;20079;-79
2024/01/15 12:58:53;;;;;;;3.13;1.38;;;;;;;19.09;67.91;101157.47;10517034;28;20105;-79
2024/01/15 13:04:23;;;;;;;6.90;2.25;;;;;;;18.85;70.92;101145.25;10496163;28;20048;-81
2024/01/15 13:09:45;;;;;;;6.47;1.55;;;;;;;18.61;77.79;101143.78;10530223;28;20044;-78
2024/01/15 13:15:11;;;;;;;4.93;1.40;;;;;;;18.30;86.89;101175.25;10529676;28;20446;-78
2024/01/15 13:20:34;;;;;;;4.95;1.52;;;;;;;18.02;94.12;101191.53;10517376;28;20052;-78
2024/01/15 13:25:56;;;;;;;8.85;1.50;;;;;;;17.64;100.00;101198.06;10506048;28;20055;-77
2024/01/15 13:31:20;;;;;;;3.40;2.30;;;;;;;17.36;100.00;101186.59;10496138;28;20041;-76
2024/01/15 13:36:43;;;;;;;6.40;2.50;;;;;;;17.15;100.00;101197.38;10513531;28;20051;-78
2024/01/15 13:42:05;;;;;;;6.15;2.80;;;;;;;17.14;100.00;101168.91;10502714;28;20048;-76
2024/01/15 13:47:29;;;;;;;5.05;2.58;;;;;;;17.09;100.00;101179.63;10514510;28;20048;-75
2024/01/15 13:52:52;;;;;;;3.67;1.45;;;;;;;17.27;100.00;101159.97;10544659;28;20060;-74
2024/01/15 13:58:14;;;;;;;8.23;2.55;;;;;;;17.38;100.00;101174.16;10511902;28;20051;-75
2024/01/15 14:03:38;;;;;;;5.90;1.90;;;;;;;17.33;100.00;101177.72;10495442;28;20045;-76
2024/01/15 14:09:01;;;;;;;4.40;1.42;;;;;;;17.26;100.00;101168.88;10505667;28;20055;-75
2024/01/15 14:14:23;;;;;;;5.15;1.73;;;;;;;17.06;100.00;101170.75;10521543;28;20048;-75
2024/01/15 14:19:48;;;;;;;3.72;1.42;;;;;;;16.88;100.00;101166.38;10521136;28;20036;-76
2024/01/15 14:25:10;;;;;;;5.20;2.00;;;;;;;16.85;100.00;101149.50;10511418;28;20064;-75
2024/01/15 14:30:33;;;;;;;2.47;1.80;;;;;;;16.55;100.00;101140.66;10519247;28;20067;-76
2024/01/15 14:35:57;;;;;;;4.63;1.60;;;;;;;16.07;100.00;101146.09;10514568;28;20404;-75
2024/01/15 14:41:19;;;;;;;8.48;1.67;;;;;;;15.85;100.00;101158.53;10546312;28;20056;-76
2024/01/15 14:46:42;;;;;;;4.28;1.38;;;;;;;15.77;100.00;101174.47;10504383;28;20040;-76
2024/01/15 14:52:06;;;;;;;11.18;2.30;;;;;;;15.61;100.00;101190.44;10524385;28;20056;-75
2024/01/15 14:57:29;;;;;;;12.35;2.65;;;;;;;15.29;100.00;101200.97;10527284;28;20048;-76
2024/01/15 15:02:51;;;;;;;10.65;4.20;;;;;;;14.93;100.00;101191.94;10515084;28;20048;-76
2024/01/15 15:08:15;;;;;;;7.22;2.83;;;;;;;14.63;100.00;101182.06;10531930;28;20052;-75
2024/01/15 15:13:38;;;;;;;6.20;1.80;;;;;;;14.65;100.00;101171.41;10519737;28;20519;-75
2024/01/15 15:19:00;;;;;;;5.55;2.00;;;;;;;14.72;100.00;101162.59;10522742;28;20850;-75
2024/01/15 15:24:24;;;;;;;7.57;2.00;;;;;;;14.67;100.00;101148.41;10519111;28;20048;-75
2024/01/15 15:29:48;;;;;;;5.40;1.75;;;;;;;14.84;100.00;101143.16;10531583;28;20048;-75
2024/01/15 15:35:10;;;;;;;8.20;2.03;;;;;;;14.96;100.00;101151.22;10516188;28;20044;-75
2024/01/15 15:40:34;;;;;;;4.70;1.80;;;;;;;15.11;100.00;101167.19;10530198;28;20062;-75
2024/01/15 15:45:57;;;;;;;9.18;2.60;;;;;;;14.99;100.00;101186.66;10530692;28;20040;-75
2024/01/15 15:51:20;;;;;;;9.25;4.03;;;;;;;14.97;100.00;101193.72;10524131;28;20055;-78
2024/01/15 15:56:47;;;;;;;5.35;2.10;;;;;;;14.91;100.00;101191.03;10491001;28;20705;-77
2024/01/15 16:02:10;;;;;;;3.65;1.85;;;;;;;14.77;100.00;101184.75;10531082;28;20111;-78
2024/01/15 16:07:32;;;;;;;6.50;2.45;;;;;;;14.65;100.00;101174.06;10524429;28;20428;-79
2024/01/15 16:12:56;;;;;;;6.97;3.88;;;;;;;14.63;100.00;101199.78;10517140;28;20040;-79
2024/01/15 16:18:18;;;;;;;4.63;2.60;;;;;;;14.46;100.00;101204.06;10534645;28;20043;-79
2024/01/15 16:23:41;;;;;;;5.15;1.95;;;;;;;14.46;100.00;101218.25;10525751;28;20060;-78
2024/01/15 16:29:05;;;;;;;5.35;3.00;;;;;;;14.48;100.00;101207.63;10506553;28;20059;-77
2024/01/15 16:34:27;;;;;;;8.93;4.03;;;;;;;14.41;100.00;101216.44;10511817;28;20048;-77
2024/01/15 16:39:50;;;;;;;4.53;2.00;;;;;;;14.41;100.00;101201.38;10514787;28;20048;-77
2024/01/15 16:45:14;;;;;;;7.85;3.15;;;;;;;14.35;100.00;101209.28;10511089;28;20172;-77
2024/01/15 16:50:37;;;;;;;4.95;2.22;;;;;;;14.49;100.00;101207.66;10521332;28;20143;-78
2024/01/15 16:55:59;;;;;;;7.22;2.45;;;;;;;14.64;100.00;101204.19;10527676;28;20044;-77
2024/01/15 17:01:24;;;;;;;8.10;2.38;;;;;;;14.70;100.00;101196.28;10509623;28;20251;-77
2024/01/15 17:06:46;;;;;;;8.63;2.45;;;;;;;14.64;100.00;101198.88;10501530;28;20052;-77
2024/01/15 17:12:09;;;;;;;8.90;4.13;;;;;;;14.51;100.00;101207.63;10515623;28;20067;-77
2024/01/15 17:17:33;;;;;;;8.50;3.20;;;;;;;14.30;100.00;101189.78;10513939;28;20047;-77
2024/01/15 17:22:55;;;;;;;9.52;3.35;;;;;;;14.14;100.00;101188.75;10526803;28;20044;-77
2024/01/15 17:28:18;;;;;;;5.32;2.08;;;;;;;14.22;100.00;101186.16;10534368;28;20562;-78
2024/01/15 17:33:42;;;;;;;6.13;2.22;;;;;;;14.22;100.00;101179.09;10524555;28;20132;-79
2024/01/15 17:39:05;;;;;;;6.35;2.42;;;;;;;14.18;100.00;101173.72;10536808;28;20055;-77
2024/01/15 17:44:28;;;;;;;6.53;2.58;;;;;;;14.11;100.00;101172.78;10522267;28;20067;-77
2024/01/15 17:49:52;;;;;;;9.60;2.50;;;;;;;14.28;100.00;101179.13;10512004;28;20039;-77
2024/01/15 17:55:15;;;;;;;9.65;2.30;;;;;;;14.54;100.00;101191.72;10529616;27;20576;-75
2024/01/15 18:00:38;;;;;;;7.82;3.05;;;;;;;14.57;100.00;101179.34;10521191;28;20132;-75
2024/01/15 18:06:02;;;;;;;10.60;3.10;;;;;;;14.82;100.00;101177.72;10511803;28;20048;-76
2024/01/15 18:11:25;;;;;;;13.35;3.20;;;;;;;15.07;100.00;101153.03;10526632;28;20040;-75
2024/01/15 18:16:48;;;;;;;7.72;2.95;;;;;;;15.21;100.00;101133.56;10518631;28;20048;-75
2024/01/15 18:22:12;;;;;;;12.32;2.83;;;;;;;15.06;100.00;101118.44;10518093;28;20044;-75
2024/01/15 18:27:36;;;;;;;7.82;2.45;;;;;;;15.04;100.00;101109.56;10513931;28;20060;-76
2024/01/15 18:32:58;;;;;;;10.10;2.30;;;;;;;14.94;100.00;101113.09;10528415;28;20040;-73
2024/01/15 18:38:22;;;;;;;10.65;3.08;;;;;;;14.86;100.00;101062.56;10531580;28;20048;-74
2024/01/15 18:43:45;;;;;;;14.85;3.55;;;;;;;14.92;100.00;101073.19;10485898;28;20083;-74
2024/01/15 18:49:07;;;;;;;8.90;2.85;;;;;;;14.83;100.00;101110.41;10520994;28;20059;-76
2024/01/15 18:54:31;;;;;;;5.57;2.33;;;;;;;14.83;100.00;101102.44;10518960;28;20048;-74
2024/01/15 18:59:53;;;;;;;8.10;1.90;;;;;;;14.94;100.00;101115.75;10509502;28;20140;-73
2024/01/15 19:05:16;;;;;;;9.30;2.63;;;;;;;14.94;100.00;101135.25;10529971;28;20058;-74
2024/01/15 19:10:41;;;;;;;8.57;2.70;;;;;;;14.80;100.00;101102.41;10520900;28;20052;-74
2024/01/15 19:16:04;;;;;;;5.38;2.20;;;;;;;14.62;100.00;101105.88;10519589;28;20495;-75
2024/01/15 19:21:26;;;;;;;7.45;2.20;;;;;;;14.50;100.00;101105.81;10521189;28;20040;-77
2024/01/15 19:26:52;;;;;;;12.48;3.97;;;;;;;14.42;100.00;101096.03;10518645;28;20048;-76
2024/01/15 19:32:15;;;;;;;7.82;2.72;;;;;;;14.36;100.00;101079.16;10532129;28;20044;-78
2024/01/15 19:37:37;;;;;;;9.05;2.72;;;;;;;14.29;100.00;101048.13;10522372;28;20048;-79
2024/01/15 19:43:02;;;;;;;10.98;3.83;;;;;;;14.31;100.00;101094.16;10494792;28;20140;-77
2024/01/15 19:48:24;;;;;;;8.13;2.78;;;;;;;14.20;100.00;101097.63;10544347;28;20122;-76
2024/01/15 19:53:47;;;;;;;9.68;3.65;;;;;;;13.95;100.00;101078.91;10515459;28;20059;-76
2024/01/15 19:59:11;;;;;;;10.85;4.05;;;;;;;13.77;100.00;101075.22;10519242;28;20036;-76
2024/01/15 20:04:34;;;;;;;6.95;3.35;;;;;;;13.82;100.00;101084.09;10535771;28;20111;-74
2024/01/15 20:09:56;;;;;;;10.55;3.13;;;;;;;14.08;100.00;101076.31;10534037;28;20048;-74
2024/01/15 20:15:20;;;;;;;9.02;2.90;;;;;;;14.24;100.00;101089.69;10518786;28;20054;-74
2024/01/15 20:20:43;;;;;;;10.10;2.42;;;;;;;14.38;100.00;101087.13;10534554;28;20059;-74
2024/01/15 20:26:07;;;;;;;8.65;3.17;;;;;;;14.48;100.00;101085.44;10503928;28;20047;-73
2024/01/15 20:31:31;;;;;;;6.00;2.30;;;;;;;14.60;100.00;101062.47;10524808;28;20048;-74
2024/01/15 20:36:53;;;;;;;7.50;2.83;;;;;;;14.82;100.00;101012.03;10512820;28;20055;-74
2024/01/15 20:42:16;;;;;;;10.40;3.38;;;;;;;14.97;100.00;100999.66;10515781;28;20075;-74
2024/01/15 20:47:41;;;;;;;8.00;3.15;;;;;;;15.03;100.00;101006.78;10514562;28;20117;-73
2024/01/15 20:53:03;;;;;;;12.68;3.85;;;;;;;15.08;100.00;100994.38;10510876;28;20040;-74
2024/01/15 20:58:26;;;;;;;16.83;5.22;;;;;;;15.18;100.00;100979.28;10523333;28;20051;-73
2024/01/15 21:03:50;;;;;;;14.43;4.53;;;;;;;15.33;100.00;100982.84;10525225;28;20051;-74
2024/01/15 21:09:12;;;;;;;7.97;3.25;;;;;;;15.62;100.00;100960.69;10516063;28;20411;-74
2024/01/15 21:14:35;;;;;;;14.75;4.30;;;;;;;15.86;100.00;100961.50;10513599;28;20536;-74
2024/01/15 21:20:00;;;;;;;10.95;3.50;;;;;;;16.08;100.00;100969.44;10514878;28;20044;-74
2024/01/15 21:25:22;;;;;;;16.63;3.30;;;;;;;15.91;100.00;100982.78;10495508;28;20050;-74
2024/01/15 21:30:46;;;;;;;15.60;3.92;;;;;;;15.54;100.00;100981.97;10525590;28;20048;-74
2024/01/15 21:36:10;;;;;;;21.60;4.28;;;;;;;15.62;100.00;100969.53;10526415;28;20139;-74
2024/01/15 21:41:33;;;;;;;23.70;4.80;;;;;;;15.68;100.00;100961.56;10538883;28;20506;-74
2024/01/15 21:46:55;;;;;;;33.90;5.28;;;;;;;15.84;100.00;100968.59;10538636;28;20040;-74
2024/01/15 21:52:19;;;;;;;48.00;6.32;;;;;;;16.04;100.00;100923.28;10527975;28;20429;-74
2024/01/15 21:57:42;;;;;;;57.67;5.85;;;;;;;16.28;100.00;100935.56;10497733;28;20124;-74
2024/01/15 22:03:06;;;;;;;46.92;6.07;;;;;;;16.35;100.00;100911.56;10493493;28;20044;-74
2024/01/15 22:08:30;;;;;;;66.72;8.20;;;;;;;16.41;100.00;100886.66;10516139;28;20040;-74
2024/01/15 22:13:53;;;;;;;68.95;8.75;;;;;;;16.52;100.00;100863.50;10521572;28;20132;-74
2024/01/15 22:19:15;;;;;;;60.38;8.32;;;;;;;16.58;100.00;100863.47;10535844;28;20052;-76
2024/01/15 22:24:40;;;;;;;85.68;9.73;;;;;;;16.58;100.00;100881.22;10522980;28;20044;-76
2024/01/15 22:30:02;;;;;;;76.00;8.75;;;;;;;16.53;100.00;100856.41;10518578;28;20061;-76
2024/01/15 22:35:25;;;;;;;100.65;11.73;;;;;;;16.59;100.00;100869.69;10494584;28;20040;-75
2024/01/15 22:40:49;;;;;;;103.97;12.75;;;;;;;16.56;100.00;100845.69;10495144;28;20076;-75
2024/01/15 22:46:12;;;;;;;119.30;14.60;;;;;;;16.48;100.00;100835.09;10535740;28;20056;-74
2024/01/15 22:51:35;;;;;;;106.70;14.02;;;;;;;16.50;100.00;100857.28;10480254;28;20048;-75
2024/01/15 22:56:59;;;;;;;100.38;13.82;;;;;;;16.55;100.00;100835.94;10523229;28;20066;-75
2024/01/15 23:02:23;;;;;;;116.38;13.77;;;;;;;16.58;100.00;100819.94;10535640;28;20051;-75
2024/01/15 23:07:45;;;;;;;107.93;16.55;;;;;;;16.69;100.00;100828.75;10500385;28;20049;-74
2024/01/15 23:13:10;;;;;;;114.22;12.63;;;;;;;16.73;100.00;100798.53;10480358;28;20415;-75
2024/01/15 23:18:32;;;;;;;109.93;12.73;;;;;;;16.69;100.00;100823.41;10492476;28;20048;-75
2024/01/15 23:23:55;;;;;;;87.50;12.57;;;;;;;16.67;100.00;100839.41;10478916;28;20102;-76
2024/01/15 23:29:19;;;;;;;73.18;10.35;;;;;;;16.77;100.00;100820.69;10499787;28;20097;-75
2024/01/15 23:34:41;;;;;;;79.45;9.43;;;;;;;16.80;100.00;100864.22;10517262;28;20055;-75
2024/01/15 23:40:04;;;;;;;80.70;9.98;;;;;;;16.68;100.00;100821.63;10511717;28;20044;-76
2024/01/15 23:45:29;;;;;;;95.13;10.88;;;;;;;16.76;100.00;100819.81;10529322;28;20041;-75
2024/01/15 23:50:52;;;;;;;82.40;9.90;;;;;;;16.78;100.00;100802.03;10523167;28;20048;-74
2024/01/15 23:56:14;;;;;;;62.33;8.82;;;;;;;16.84;100.00;100827.75;10520231;28;20052;-74
